首页
METAR-TAF:

METAR-TAF

机场 :

北京首都国际机场

北京, 中华人民共和国

纬度: 39-56N, 经度: 116-17E, 海拔: 55米

当前天气观测

该预报发布于30分钟前的15:00 UTC
风速2节,风向南转南东
温度 24°C
湿度 83%
气压 1013 hPa
能见度10公里或以上
1500米以下无云,无积雨云

METAR: ZBAA 161500Z 15001MPS CAVOK 24/21 Q1013 NOSIG

时间: 23:30 (15:30 UTC)

预报

该预报发布于6小时和0分钟前的09:30 UTC
预报有效从16日的 12点(UTC)到 17日的 12点(UTC)
风速8节,风向南转南东
能见度10公里或以上
1500米以下无云,无积雨云

TAF: ZBAA 160930Z 1612/1712 16004MPS CAVOK TX31/1707Z TN22/1621Z

超过4000个机场的气象观测和天气预报(METAR&TAF报告)。

可查询的气象台以黄色和红色小点在地图上表示。

将鼠标移到小点上方,可查看气象台名称。

然后点击查看天气观测和预报。

如需切换地图:点击带黑十字的绿色按钮放大地图;点击带横线的绿色按钮缩小地图;或者点击绿色箭头查看邻近地区的地图。


METAR-TAF: